Time;durP1;ratioP1;P1;durP2;ratioP2;P2;SDS_P1;SDS_P2;PMS_P1;PMS_P2;Temp;Humidity;BMP_temperature;BMP_pressure;BME280_temperature;BME280_humidity;BME280_pressure;Samples;Min_cycle;Max_cycle;Signal;HPM_P1;HPM_P2
2021/06/09 00:00:51;;;;;;;17.27;15.52;;;18.10;99.90;;;;;;5052761;28;20756;-60
2021/06/09 00:03:21;;;;;;;15.90;14.32;;;18.10;99.90;;;;;;5052878;28;20263;-62
2021/06/09 00:05:50;;;;;;;15.90;14.45;;;18.20;99.90;;;;;;5052834;28;20292;-61
2021/06/09 00:08:18;;;;;;;15.18;13.88;;;18.40;99.90;;;;;;5052722;28;20551;-61
2021/06/09 00:10:47;;;;;;;15.70;14.40;;;18.40;99.90;;;;;;5052844;28;20208;-61
2021/06/09 00:13:15;;;;;;;15.65;14.23;;;18.50;99.90;;;;;;5055830;28;20196;-61
2021/06/09 00:15:43;;;;;;;15.35;14.00;;;18.60;99.90;;;;;;5072355;28;20391;-61
2021/06/09 00:18:11;;;;;;;15.77;14.30;;;18.50;99.90;;;;;;5071792;28;20231;-60
2021/06/09 00:20:40;;;;;;;15.52;14.05;;;18.40;99.90;;;;;;5072227;28;20207;-61
2021/06/09 00:23:09;;;;;;;15.07;13.73;;;18.40;99.90;;;;;;5072753;28;20234;-61
2021/06/09 00:25:37;;;;;;;14.90;13.50;;;18.30;99.90;;;;;;5072534;28;20291;-61
2021/06/09 00:28:05;;;;;;;14.40;13.20;;;18.20;99.90;;;;;;5088388;28;20327;-61
2021/06/09 00:30:34;;;;;;;14.20;13.00;;;18.20;99.90;;;;;;5092806;28;20196;-61
2021/06/09 00:33:02;;;;;;;15.32;13.82;;;18.20;99.90;;;;;;5092527;28;20196;-60
2021/06/09 00:35:30;;;;;;;13.25;12.15;;;18.20;99.90;;;;;;5092562;28;20196;-60
2021/06/09 00:37:59;;;;;;;13.93;12.63;;;18.20;99.90;;;;;;5092366;28;20226;-61
2021/06/09 00:40:27;;;;;;;13.57;12.27;;;18.10;99.90;;;;;;5092724;28;20565;-61
2021/06/09 00:43:07;;;;;;;13.05;11.85;;;18.20;99.90;;;;;;5092642;28;20200;-61
2021/06/09 00:45:35;;;;;;;12.45;11.43;;;18.20;99.90;;;;;;5092343;28;20192;-60
2021/06/09 00:48:03;;;;;;;12.30;11.30;;;18.30;99.90;;;;;;5092134;28;20214;-60
2021/06/09 00:50:31;;;;;;;12.25;11.25;;;18.30;99.90;;;;;;5092068;28;20214;-60
2021/06/09 00:55:42;;;;;;;14.20;11.07;;;18.30;99.90;;;;;;5091502;28;20191;-61
2021/06/09 00:58:11;;;;;;;12.18;11.02;;;18.30;99.90;;;;;;5092086;28;20239;-61
2021/06/09 01:00:39;;;;;;;12.38;11.27;;;18.30;99.90;;;;;;5092319;28;20196;-61
2021/06/09 01:03:06;;;;;;;11.40;10.50;;;18.40;99.90;;;;;;5092284;28;20224;-60
2021/06/09 01:05:35;;;;;;;12.00;10.68;;;18.40;99.90;;;;;;5091957;28;20679;-61
2021/06/09 01:08:06;;;;;;;12.38;11.20;;;18.30;99.90;;;;;;5092269;28;20198;-61
2021/06/09 01:10:34;;;;;;;11.50;10.40;;;18.40;99.90;;;;;;5092262;28;20279;-61
2021/06/09 01:13:02;;;;;;;10.85;9.73;;;18.30;99.90;;;;;;5090837;28;20200;-61
2021/06/09 01:15:30;;;;;;;11.52;10.52;;;18.20;99.90;;;;;;5072085;28;20222;-61
2021/06/09 01:17:58;;;;;;;10.85;9.88;;;18.20;99.90;;;;;;5071729;28;20316;-61
2021/06/09 01:20:27;;;;;;;11.57;10.35;;;18.20;99.90;;;;;;5071815;28;20291;-60
2021/06/09 01:22:56;;;;;;;10.93;9.95;;;18.20;99.90;;;;;;5071944;28;20303;-61
2021/06/09 01:25:26;;;;;;;10.98;9.93;;;18.30;99.90;;;;;;5071879;28;20569;-60
2021/06/09 01:27:54;;;;;;;11.20;10.07;;;18.30;99.90;;;;;;5071463;28;20224;-61
2021/06/09 01:30:21;;;;;;;10.25;9.43;;;18.20;99.90;;;;;;5071972;28;20293;-60
2021/06/09 01:32:51;;;;;;;11.32;10.32;;;18.20;99.90;;;;;;5071757;28;20201;-60
2021/06/09 01:35:19;;;;;;;10.77;9.77;;;18.10;99.90;;;;;;5071695;28;20206;-61
2021/06/09 01:37:48;;;;;;;11.57;10.40;;;18.10;99.90;;;;;;5071775;28;20225;-60
2021/06/09 01:40:19;;;;;;;10.05;9.15;;;18.20;99.90;;;;;;5071745;28;20224;-60
2021/06/09 01:42:48;;;;;;;10.70;9.80;;;18.20;99.90;;;;;;5071856;28;20279;-59
2021/06/09 01:45:18;;;;;;;10.57;9.68;;;18.10;99.90;;;;;;5071398;28;20199;-60
2021/06/09 01:47:45;;;;;;;11.02;10.13;;;18.00;99.90;;;;;;5071602;28;20180;-61
2021/06/09 01:50:15;;;;;;;10.65;9.65;;;18.00;99.90;;;;;;5071582;28;20223;-61
2021/06/09 01:52:43;;;;;;;9.75;8.93;;;18.00;99.90;;;;;;5071328;28;20247;-60
2021/06/09 01:55:13;;;;;;;10.82;9.98;;;18.00;99.90;;;;;;5071667;28;20220;-61
2021/06/09 01:57:42;;;;;;;10.20;9.25;;;18.00;99.90;;;;;;5071477;28;20223;-60
2021/06/09 02:00:12;;;;;;;9.85;8.95;;;17.90;99.90;;;;;;5071479;28;20329;-60
2021/06/09 02:02:40;;;;;;;9.98;9.07;;;17.80;99.90;;;;;;5071397;28;20197;-61
2021/06/09 02:05:10;;;;;;;12.55;9.57;;;17.80;99.90;;;;;;5071505;28;20211;-61
2021/06/09 02:07:38;;;;;;;10.35;9.35;;;17.80;99.90;;;;;;5075232;28;20200;-60
2021/06/09 02:10:09;;;;;;;9.80;8.90;;;17.70;99.90;;;;;;5074848;28;20816;-61
2021/06/09 02:12:39;;;;;;;10.50;9.60;;;17.70;99.90;;;;;;5075070;28;20192;-61
2021/06/09 02:15:09;;;;;;;9.27;8.48;;;17.60;99.90;;;;;;5093887;28;20199;-60
2021/06/09 02:17:37;;;;;;;9.90;9.10;;;17.70;99.90;;;;;;5094848;28;20209;-60
2021/06/09 02:20:06;;;;;;;9.82;9.00;;;17.70;99.90;;;;;;5095164;28;20206;-60
2021/06/09 02:22:36;;;;;;;9.52;8.68;;;17.70;99.90;;;;;;5095170;28;20218;-60
2021/06/09 02:25:05;;;;;;;9.35;8.45;;;17.70;99.90;;;;;;5095137;28;20207;-60
2021/06/09 02:27:32;;;;;;;9.43;8.70;;;17.80;99.90;;;;;;5094720;28;20330;-60
2021/06/09 02:30:00;;;;;;;9.00;8.27;;;17.80;99.90;;;;;;5095023;28;20222;-60
2021/06/09 02:32:29;;;;;;;8.90;8.20;;;17.80;99.90;;;;;;5094922;28;20199;-60
2021/06/09 02:34:57;;;;;;;9.27;8.50;;;17.80;99.90;;;;;;5094808;28;20243;-60
2021/06/09 02:37:24;;;;;;;8.52;7.82;;;17.80;99.90;;;;;;5094540;28;20862;-60
2021/06/09 02:39:52;;;;;;;9.60;8.60;;;17.80;99.90;;;;;;5094840;28;20200;-60
2021/06/09 02:42:20;;;;;;;10.30;9.23;;;17.80;99.90;;;;;;5094580;28;20751;-60
2021/06/09 02:44:48;;;;;;;9.85;8.50;;;17.80;99.90;;;;;;5094820;28;20287;-60
2021/06/09 02:47:17;;;;;;;9.02;8.20;;;17.70;99.90;;;;;;5094560;28;20574;-60
2021/06/09 02:49:47;;;;;;;9.40;8.48;;;17.70;99.90;;;;;;5094417;28;20520;-60
2021/06/09 02:52:23;;;;;;;9.10;8.30;;;17.70;99.90;;;;;;5094338;28;20834;-60
2021/06/09 02:54:58;;;;;;;9.40;8.55;;;17.60;99.90;;;;;;5094618;28;20184;-60
2021/06/09 02:57:34;;;;;;;9.68;8.68;;;17.60;99.90;;;;;;5094331;28;20683;-61
2021/06/09 03:00:05;;;;;;;8.65;7.90;;;17.60;99.90;;;;;;5094165;28;20726;-59
2021/06/09 03:02:42;;;;;;;9.15;8.45;;;17.60;99.90;;;;;;5094036;28;20544;-60
2021/06/09 03:05:18;;;;;;;9.88;8.93;;;17.60;99.90;;;;;;5094252;28;20651;-60
2021/06/09 03:07:58;;;;;;;9.45;8.57;;;17.60;99.90;;;;;;5094115;28;20180;-61
2021/06/09 03:10:47;;;;;;;8.82;7.78;;;17.60;99.90;;;;;;5094296;28;20263;-60
2021/06/09 03:13:26;;;;;;;9.05;8.18;;;17.60;99.90;;;;;;5091115;28;20193;-60
2021/06/09 03:16:01;;;;;;;8.95;8.00;;;17.60;99.90;;;;;;5073551;28;20768;-61
2021/06/09 03:18:35;;;;;;;9.10;8.30;;;17.60;99.90;;;;;;5073342;28;20301;-61
2021/06/09 03:21:07;;;;;;;8.88;8.07;;;17.70;99.90;;;;;;5073713;28;20185;-60
2021/06/09 03:23:45;;;;;;;8.98;8.18;;;17.80;99.90;;;;;;5074023;28;20181;-60
2021/06/09 03:26:16;;;;;;;8.95;7.57;;;17.80;99.90;;;;;;5073174;28;20185;-61
2021/06/09 03:28:51;;;;;;;8.25;7.65;;;17.70;99.90;;;;;;5073510;28;20181;-60
2021/06/09 03:31:24;;;;;;;9.18;7.95;;;17.70;99.90;;;;;;5073687;28;20208;-60
2021/06/09 03:33:54;;;;;;;8.90;8.10;;;17.80;99.90;;;;;;5073534;28;20185;-61
2021/06/09 03:36:26;;;;;;;8.45;7.65;;;17.80;99.90;;;;;;5073761;28;20228;-61
2021/06/09 03:38:58;;;;;;;7.97;7.03;;;17.80;99.90;;;;;;5073496;28;20208;-60
2021/06/09 03:41:31;;;;;;;8.55;7.90;;;17.80;99.90;;;;;;5073180;28;20893;-61
2021/06/09 03:44:00;;;;;;;7.50;6.90;;;17.70;99.90;;;;;;5073196;28;20189;-61
2021/06/09 03:46:29;;;;;;;8.55;7.75;;;17.70;99.90;;;;;;5073291;28;20207;-61
2021/06/09 03:48:59;;;;;;;8.25;7.53;;;17.80;99.90;;;;;;5073121;28;20253;-61
2021/06/09 03:51:29;;;;;;;9.43;8.48;;;17.80;99.90;;;;;;5072754;28;20197;-61
2021/06/09 03:54:00;;;;;;;9.32;8.50;;;17.90;99.90;;;;;;5072962;28;20220;-60
2021/06/09 03:56:29;;;;;;;8.38;7.55;;;18.00;99.90;;;;;;5073158;28;20201;-60
2021/06/09 03:58:59;;;;;;;8.70;7.50;;;17.90;99.90;;;;;;5073017;28;20348;-60
2021/06/09 04:01:30;;;;;;;8.65;7.95;;;17.90;99.90;;;;;;5072695;28;20672;-60
2021/06/09 04:04:00;;;;;;;8.82;8.02;;;18.00;99.90;;;;;;5073095;28;20203;-60
2021/06/09 04:06:29;;;;;;;9.57;8.75;;;17.90;99.90;;;;;;5072810;28;20296;-61
2021/06/09 04:08:58;;;;;;;9.07;8.27;;;17.90;99.90;;;;;;5072860;28;20203;-61
2021/06/09 04:11:28;;;;;;;8.93;8.15;;;17.90;99.90;;;;;;5072915;28;20226;-60
2021/06/09 04:13:57;;;;;;;8.65;7.88;;;17.90;99.90;;;;;;5081556;28;20202;-60
2021/06/09 04:16:27;;;;;;;10.52;7.97;;;18.00;99.90;;;;;;5092926;28;20204;-61
2021/06/09 04:18:56;;;;;;;8.48;7.75;;;18.00;99.90;;;;;;5092742;28;20294;-61
2021/06/09 04:21:25;;;;;;;8.57;7.68;;;18.00;99.90;;;;;;5092604;28;20295;-61
2021/06/09 04:23:54;;;;;;;8.88;8.07;;;17.90;99.90;;;;;;5092655;28;20207;-60
2021/06/09 04:26:24;;;;;;;9.90;7.85;;;18.00;99.90;;;;;;5092608;28;20287;-61
2021/06/09 04:28:55;;;;;;;9.73;8.23;;;18.00;99.90;;;;;;5091829;28;20217;-61
2021/06/09 04:31:24;;;;;;;8.60;7.80;;;18.00;99.90;;;;;;5092463;28;20289;-60
2021/06/09 04:33:55;;;;;;;7.75;7.15;;;18.10;99.90;;;;;;5092619;28;20222;-61
2021/06/09 04:36:23;;;;;;;8.23;7.53;;;18.10;99.90;;;;;;5092564;28;20184;-60
2021/06/09 04:38:51;;;;;;;8.48;7.75;;;18.30;99.90;;;;;;5092490;28;20226;-61
2021/06/09 04:41:21;;;;;;;9.13;8.32;;;18.50;99.90;;;;;;5092340;28;20328;-60
2021/06/09 04:43:49;;;;;;;9.00;8.20;;;18.80;99.90;;;;;;5092934;28;20210;-61
2021/06/09 04:46:20;;;;;;;8.70;8.00;;;19.00;99.90;;;;;;5092922;28;20196;-61
2021/06/09 04:48:59;;;;;;;9.10;8.13;;;19.20;99.90;;;;;;5092618;28;20672;-60
2021/06/09 04:51:29;;;;;;;12.00;8.85;;;19.50;99.90;;;;;;5092655;28;20649;-62
2021/06/09 04:53:57;;;;;;;9.90;8.35;;;19.70;99.90;;;;;;5092600;28;20204;-61
2021/06/09 04:56:31;;;;;;;9.95;9.05;;;19.90;99.90;;;;;;5092415;28;20216;-61
2021/06/09 04:59:01;;;;;;;9.63;8.75;;;20.50;99.90;;;;;;5092384;28;20218;-61
2021/06/09 05:01:29;;;;;;;8.85;8.13;;;20.80;99.90;;;;;;5092445;28;20204;-61
2021/06/09 05:03:57;;;;;;;8.95;8.15;;;20.90;99.90;;;;;;5092703;28;20639;-61
2021/06/09 05:06:25;;;;;;;8.30;7.57;;;20.80;99.90;;;;;;5092387;28;20614;-61
2021/06/09 05:08:53;;;;;;;8.90;8.18;;;20.50;99.90;;;;;;5090737;28;20196;-60
2021/06/09 05:11:29;;;;;;;12.70;8.98;;;20.30;99.90;;;;;;5072090;28;20284;-61
2021/06/09 05:13:58;;;;;;;9.05;8.13;;;20.10;99.90;;;;;;5080125;28;20183;-60
2021/06/09 05:16:28;;;;;;;9.25;8.35;;;19.90;99.90;;;;;;5092389;28;20674;-61
2021/06/09 05:18:57;;;;;;;8.63;7.93;;;19.80;99.90;;;;;;5092651;28;20241;-61
2021/06/09 05:21:31;;;;;;;8.88;7.95;;;19.70;99.90;;;;;;5092408;28;20204;-60
2021/06/09 05:24:00;;;;;;;8.77;7.93;;;19.60;99.90;;;;;;5092736;28;20258;-61
2021/06/09 05:26:31;;;;;;;9.02;7.97;;;19.60;99.90;;;;;;5092222;28;20208;-60
2021/06/09 05:29:03;;;;;;;9.52;8.73;;;19.70;99.90;;;;;;5092712;28;20267;-61
2021/06/09 05:31:32;;;;;;;9.13;8.32;;;19.70;99.90;;;;;;5078908;28;20199;-60
2021/06/09 05:34:01;;;;;;;8.60;7.80;;;20.00;99.90;;;;;;5071957;28;20239;-61
2021/06/09 05:36:30;;;;;;;8.50;7.60;;;20.30;99.90;;;;;;5072327;28;20207;-62
2021/06/09 05:38:58;;;;;;;8.82;8.02;;;20.30;99.90;;;;;;5072624;28;20235;-61
2021/06/09 05:41:26;;;;;;;9.73;7.65;;;20.40;99.90;;;;;;5076079;28;20200;-61
2021/06/09 05:43:55;;;;;;;8.15;7.35;;;20.40;99.90;;;;;;5075926;28;20287;-61
2021/06/09 05:46:27;;;;;;;9.23;8.07;;;20.20;99.90;;;;;;5075502;28;20779;-61
2021/06/09 05:48:55;;;;;;;8.05;7.25;;;20.20;99.90;;;;;;5075807;28;20529;-59
2021/06/09 05:51:23;;;;;;;7.55;6.95;;;20.20;99.90;;;;;;5076004;28;20208;-59
2021/06/09 05:53:53;;;;;;;7.20;6.60;;;20.40;99.90;;;;;;5093232;28;20203;-59
2021/06/09 05:56:21;;;;;;;6.75;6.05;;;20.50;99.90;;;;;;5078990;28;20197;-58
2021/06/09 05:58:48;;;;;;;6.75;6.15;;;20.90;99.90;;;;;;5092353;28;20319;-59
2021/06/09 06:01:17;;;;;;;7.50;6.32;;;21.30;99.90;;;;;;5066505;28;20297;-59
2021/06/09 06:03:48;;;;;;;6.50;5.95;;;21.50;99.90;;;;;;5052925;28;20265;-59
2021/06/09 06:06:17;;;;;;;6.60;6.00;;;21.50;99.90;;;;;;5052938;28;20207;-58
2021/06/09 06:08:45;;;;;;;6.72;6.03;;;21.60;99.90;;;;;;5053807;28;20303;-59
2021/06/09 06:11:14;;;;;;;6.30;5.85;;;21.60;99.90;;;;;;5076854;28;20201;-59
2021/06/09 06:13:46;;;;;;;8.32;6.40;;;21.50;99.90;;;;;;5088348;28;20232;-58
2021/06/09 06:16:15;;;;;;;6.32;5.72;;;21.50;99.90;;;;;;5073676;28;20284;-58
2021/06/09 06:18:45;;;;;;;6.45;5.85;;;21.50;99.90;;;;;;5076440;28;20226;-59
2021/06/09 06:21:15;;;;;;;7.32;6.72;;;21.50;99.90;;;;;;5092640;28;20202;-61
2021/06/09 06:23:43;;;;;;;6.40;5.80;;;21.50;99.90;;;;;;5092414;28;20242;-61
2021/06/09 06:26:15;;;;;;;6.60;5.90;;;21.60;99.90;;;;;;5092577;28;20200;-59
2021/06/09 06:28:43;;;;;;;6.97;6.32;;;21.50;99.90;;;;;;5058112;28;20281;-59
2021/06/09 06:31:12;;;;;;;5.82;5.35;;;21.70;99.90;;;;;;5072371;28;20292;-59
2021/06/09 06:33:41;;;;;;;6.88;6.28;;;21.90;99.90;;;;;;5072234;28;20200;-59
2021/06/09 06:36:11;;;;;;;6.50;5.90;;;22.10;99.90;;;;;;5072249;28;20204;-59
2021/06/09 06:38:41;;;;;;;6.68;6.07;;;22.20;99.90;;;;;;5072091;28;20223;-58
2021/06/09 06:41:09;;;;;;;6.10;5.35;;;22.50;99.90;;;;;;5071887;28;20215;-60
2021/06/09 06:43:38;;;;;;;5.80;5.30;;;22.70;99.90;;;;;;5071987;28;20203;-59
2021/06/09 06:46:08;;;;;;;5.97;5.38;;;22.50;99.90;;;;;;5091031;28;20227;-61
2021/06/09 06:48:35;;;;;;;6.13;5.63;;;22.40;99.90;;;;;;5091570;28;20287;-59
2021/06/09 06:51:05;;;;;;;9.65;5.18;;;22.40;99.90;;;;;;5090818;28;20211;-61
2021/06/09 06:53:34;;;;;;;5.80;5.30;;;22.60;99.90;;;;;;5092026;28;20287;-60
2021/06/09 06:56:02;;;;;;;5.22;4.82;;;22.60;99.90;;;;;;5091860;28;20204;-60
2021/06/09 06:58:31;;;;;;;6.68;5.20;;;22.90;99.90;;;;;;5092168;28;20211;-61
2021/06/09 07:00:59;;;;;;;5.38;4.97;;;22.80;99.90;;;;;;5091243;28;20659;-61
2021/06/09 07:03:27;;;;;;;5.57;4.93;;;22.90;99.90;;;;;;5091055;28;20200;-63
2021/06/09 07:05:55;;;;;;;6.00;5.40;;;22.90;99.90;;;;;;5090987;28;20200;-61
2021/06/09 07:08:23;;;;;;;5.30;4.57;;;22.80;99.90;;;;;;5091715;28;20301;-60
2021/06/09 07:10:53;;;;;;;5.32;4.82;;;22.80;99.90;;;;;;5091622;28;20246;-61
2021/06/09 07:13:22;;;;;;;5.03;4.63;;;23.00;99.90;;;;;;5091216;28;20713;-62
2021/06/09 07:15:53;;;;;;;4.95;4.55;;;23.30;99.90;;;;;;5091405;28;20287;-60
2021/06/09 07:18:23;;;;;;;4.25;3.92;;;23.70;99.90;;;;;;5087828;28;20220;-59
2021/06/09 07:20:51;;;;;;;3.88;3.58;;;23.90;99.90;;;;;;5067143;28;20204;-62
2021/06/09 07:23:19;;;;;;;3.80;3.25;;;24.00;99.90;;;;;;5050908;28;20296;-60
2021/06/09 07:25:47;;;;;;;3.85;3.58;;;24.00;99.90;;;;;;5050667;28;20695;-61
2021/06/09 07:28:17;;;;;;;3.53;3.22;;;23.90;99.90;;;;;;5050727;28;20312;-62
2021/06/09 07:30:46;;;;;;;4.15;3.75;;;23.90;99.90;;;;;;5051059;28;20181;-61
2021/06/09 07:33:14;;;;;;;3.85;3.55;;;23.80;99.90;;;;;;5050621;28;20958;-60
2021/06/09 07:35:42;;;;;;;4.00;3.70;;;23.70;99.90;;;;;;5050728;28;20288;-60
2021/06/09 07:38:15;;;;;;;5.35;4.30;;;23.70;99.90;;;;;;5050952;28;20300;-60
2021/06/09 07:40:44;;;;;;;4.97;3.15;;;23.50;99.90;;;;;;5050883;28;20231;-60
2021/06/09 07:43:13;;;;;;;5.15;3.50;;;23.50;99.90;;;;;;5050821;28;20291;-62
2021/06/09 07:45:43;;;;;;;3.85;3.47;;;23.70;99.90;;;;;;5050704;28;20289;-61
2021/06/09 07:48:12;;;;;;;3.58;3.28;;;23.70;99.90;;;;;;5050268;28;20669;-61
2021/06/09 07:50:44;;;;;;;6.15;3.95;;;23.90;99.90;;;;;;5050143;28;20201;-60
2021/06/09 07:53:14;;;;;;;3.95;3.65;;;24.00;99.90;;;;;;5050806;28;20283;-61
2021/06/09 07:55:43;;;;;;;4.35;3.60;;;24.20;99.90;;;;;;5050535;28;20223;-61
2021/06/09 07:58:12;;;;;;;4.38;3.38;;;24.40;99.90;;;;;;5049838;28;20744;-61
2021/06/09 08:00:40;;;;;;;3.35;3.05;;;24.40;99.90;;;;;;5050327;28;20304;-61
2021/06/09 08:03:09;;;;;;;3.80;3.40;;;24.60;99.90;;;;;;5049512;28;20743;-60
2021/06/09 08:05:39;;;;;;;5.15;3.60;;;24.70;99.90;;;;;;5055307;28;20304;-64
2021/06/09 08:08:06;;;;;;;3.60;3.30;;;24.80;99.90;;;;;;5069662;28;20694;-59
2021/06/09 08:10:41;;;;;;;4.65;3.83;;;24.70;99.90;;;;;;5069921;28;20188;-59
2021/06/09 08:13:10;;;;;;;4.55;3.75;;;24.90;99.90;;;;;;5069642;28;20296;-60
2021/06/09 08:15:41;;;;;;;4.13;3.72;;;25.00;99.90;;;;;;5069562;28;20201;-61
2021/06/09 08:18:12;;;;;;;4.43;4.03;;;24.90;99.90;;;;;;5071018;28;20672;-59
2021/06/09 08:21:02;;;;;;;4.18;3.80;;;24.90;99.90;;;;;;5089875;28;20244;-60
2021/06/09 08:23:29;;;;;;;4.13;3.72;;;24.60;99.90;;;;;;5089532;28;20694;-60
2021/06/09 08:25:57;;;;;;;3.78;3.47;;;24.20;99.90;;;;;;5089726;28;20292;-61
2021/06/09 08:28:24;;;;;;;4.38;3.97;;;24.20;99.90;;;;;;5089604;28;20232;-59
2021/06/09 08:30:51;;;;;;;4.20;3.90;;;24.30;99.90;;;;;;5089971;28;20218;-59
2021/06/09 08:33:20;;;;;;;4.30;3.88;;;24.30;99.90;;;;;;5089798;28;20204;-61
2021/06/09 08:35:48;;;;;;;4.82;4.40;;;24.30;99.90;;;;;;5089622;28;20295;-61
2021/06/09 08:38:15;;;;;;;4.45;4.05;;;24.00;99.90;;;;;;5089517;28;20295;-60
2021/06/09 08:40:43;;;;;;;5.13;4.05;;;23.90;99.90;;;;;;5089207;28;20220;-59
2021/06/09 08:43:12;;;;;;;5.40;4.57;;;23.60;99.90;;;;;;5089642;28;20314;-59
2021/06/09 08:45:39;;;;;;;5.38;4.95;;;23.50;99.90;;;;;;5089523;28;20307;-60
2021/06/09 08:48:07;;;;;;;6.05;5.00;;;23.60;99.90;;;;;;5089524;28;20203;-60
2021/06/09 08:50:36;;;;;;;9.02;4.65;;;23.60;99.90;;;;;;5089273;28;20293;-61
2021/06/09 08:53:06;;;;;;;5.25;4.85;;;23.60;99.90;;;;;;5089419;28;20200;-61
2021/06/09 08:55:34;;;;;;;5.15;4.65;;;23.50;99.90;;;;;;5088897;28;20234;-60
2021/06/09 08:58:05;;;;;;;5.38;4.88;;;23.60;99.90;;;;;;5089321;28;20210;-59
2021/06/09 09:00:33;;;;;;;4.88;4.47;;;23.60;99.90;;;;;;5089371;28;20325;-59
2021/06/09 09:03:01;;;;;;;6.25;5.50;;;23.60;99.90;;;;;;5088874;28;20263;-59
2021/06/09 09:05:29;;;;;;;5.78;5.22;;;23.70;99.90;;;;;;5089164;28;20286;-58
2021/06/09 09:07:57;;;;;;;5.63;5.13;;;24.10;99.90;;;;;;5089380;28;20555;-60
2021/06/09 09:10:26;;;;;;;5.78;5.28;;;24.40;99.90;;;;;;5089054;28;20215;-60
2021/06/09 09:12:55;;;;;;;6.32;4.65;;;24.80;99.90;;;;;;5089521;28;20306;-60
2021/06/09 09:15:24;;;;;;;5.20;4.80;;;25.00;99.90;;;;;;5093251;28;20203;-61
2021/06/09 09:17:54;;;;;;;5.78;5.38;;;25.00;99.90;;;;;;5095886;28;20195;-59
2021/06/09 09:20:24;;;;;;;5.32;4.90;;;25.30;99.90;;;;;;5055276;28;20296;-60
2021/06/09 09:22:53;;;;;;;7.32;5.03;;;25.50;99.90;;;;;;5055995;28;20197;-61
2021/06/09 09:25:21;;;;;;;5.35;4.95;;;25.90;99.90;;;;;;5055357;28;20219;-61
2021/06/09 09:27:53;;;;;;;6.10;5.38;;;25.80;99.90;;;;;;5055066;28;20229;-60
2021/06/09 09:30:21;;;;;;;6.20;5.63;;;26.00;99.90;;;;;;5055664;28;20264;-61
2021/06/09 09:33:04;;;;;;;6.05;5.55;;;26.20;99.90;;;;;;5055279;28;20217;-60
2021/06/09 09:35:33;;;;;;;6.22;5.72;;;26.40;99.90;;;;;;5055651;28;20192;-58
2021/06/09 09:38:16;;;;;;;5.30;4.80;;;26.60;99.90;;;;;;5055925;28;20232;-60
2021/06/09 09:41:11;;;;;;;5.70;5.20;;;26.80;99.90;;;;;;5055632;28;20770;-59
2021/06/09 09:43:48;;;;;;;5.70;5.20;;;26.90;99.90;;;;;;5055718;28;20182;-59
2021/06/09 09:46:18;;;;;;;6.13;5.63;;;27.20;99.90;;;;;;5055169;28;20280;-60
2021/06/09 09:49:05;;;;;;;5.60;5.10;;;27.30;99.90;;;;;;5055758;28;20201;-60
2021/06/09 09:51:36;;;;;;;5.47;5.07;;;26.90;99.90;;;;;;5055575;28;20216;-61
2021/06/09 09:54:06;;;;;;;5.50;5.00;;;26.60;99.90;;;;;;5055314;28;20632;-59
2021/06/09 09:56:36;;;;;;;5.45;4.95;;;26.50;99.90;;;;;;5078190;28;20197;-61
2021/06/09 09:59:05;;;;;;;5.40;4.85;;;26.50;99.90;;;;;;5079030;28;20204;-61
2021/06/09 10:01:34;;;;;;;6.30;5.60;;;26.60;99.90;;;;;;5078755;28;20308;-60
2021/06/09 10:04:04;;;;;;;6.65;5.43;;;26.70;99.90;;;;;;5078879;28;20317;-61
2021/06/09 10:06:34;;;;;;;5.47;5.07;;;26.60;99.90;;;;;;5078788;28;20299;-60
2021/06/09 10:09:13;;;;;;;5.70;5.20;;;26.40;99.90;;;;;;5078597;28;20208;-61
2021/06/09 10:11:44;;;;;;;5.60;5.20;;;26.30;99.90;;;;;;5078559;28;20191;-61
2021/06/09 10:14:16;;;;;;;6.32;5.20;;;26.20;99.90;;;;;;5078528;28;20226;-60
2021/06/09 10:16:45;;;;;;;5.57;5.18;;;26.30;99.90;;;;;;5078819;28;20202;-60
2021/06/09 10:19:15;;;;;;;5.93;5.13;;;26.50;99.90;;;;;;5089648;28;20263;-60
2021/06/09 10:21:46;;;;;;;5.82;5.30;;;26.60;99.90;;;;;;5099913;28;20338;-60
2021/06/09 10:24:14;;;;;;;5.32;4.93;;;26.60;99.90;;;;;;5099702;28;20612;-60
2021/06/09 10:26:52;;;;;;;6.55;5.82;;;26.60;99.90;;;;;;5095581;28;20311;-60
2021/06/09 10:29:21;;;;;;;5.60;5.00;;;26.70;99.90;;;;;;5095347;28;20632;-60
2021/06/09 10:31:52;;;;;;;6.00;5.43;;;26.60;99.90;;;;;;5095481;28;20283;-60
2021/06/09 10:34:22;;;;;;;5.57;5.07;;;26.70;99.90;;;;;;5095707;28;20288;-60
2021/06/09 10:36:51;;;;;;;5.70;5.25;;;26.80;99.90;;;;;;5094966;28;20668;-61
2021/06/09 10:39:21;;;;;;;7.35;5.30;;;26.70;99.90;;;;;;5095165;28;20576;-59
2021/06/09 10:41:51;;;;;;;5.47;5.07;;;26.60;99.90;;;;;;5095185;28;20314;-60
2021/06/09 10:44:21;;;;;;;6.63;6.03;;;26.20;99.90;;;;;;5095440;28;20180;-60
2021/06/09 10:46:50;;;;;;;6.47;5.88;;;26.30;99.90;;;;;;5095476;28;20298;-59
2021/06/09 10:49:20;;;;;;;6.15;5.65;;;26.00;99.90;;;;;;5095216;28;20257;-61
2021/06/09 10:51:50;;;;;;;6.38;5.78;;;25.90;99.90;;;;;;5094927;28;20628;-60
2021/06/09 10:54:20;;;;;;;7.28;6.47;;;25.60;99.90;;;;;;5095283;28;20199;-59
2021/06/09 10:56:51;;;;;;;5.93;5.32;;;25.30;99.90;;;;;;5095316;28;20195;-61
2021/06/09 10:59:21;;;;;;;6.20;5.60;;;25.10;99.90;;;;;;5095376;28;20623;-60
2021/06/09 11:01:51;;;;;;;6.30;5.80;;;25.20;99.90;;;;;;5095131;28;20230;-59
2021/06/09 11:04:19;;;;;;;7.10;5.57;;;25.20;99.90;;;;;;5095089;28;20196;-60
2021/06/09 11:06:49;;;;;;;8.18;6.55;;;25.30;99.90;;;;;;5094820;28;20200;-61
2021/06/09 11:09:31;;;;;;;5.78;5.22;;;25.10;99.90;;;;;;5095208;28;20242;-60
2021/06/09 11:12:24;;;;;;;6.60;5.50;;;25.00;99.90;;;;;;5094638;28;20196;-59
2021/06/09 11:14:56;;;;;;;6.03;5.43;;;25.20;99.90;;;;;;5077724;28;20269;-61
2021/06/09 11:17:38;;;;;;;6.70;6.10;;;25.40;99.90;;;;;;5071808;28;20212;-60
2021/06/09 11:20:19;;;;;;;6.45;5.85;;;25.60;99.90;;;;;;5091817;28;20208;-59
2021/06/09 11:23:01;;;;;;;5.88;5.28;;;25.40;99.90;;;;;;5094494;28;20709;-61
2021/06/09 11:25:33;;;;;;;5.70;5.30;;;25.60;99.90;;;;;;5094751;28;20230;-60
2021/06/09 11:28:05;;;;;;;6.30;5.80;;;25.60;99.90;;;;;;5094573;28;20338;-60
2021/06/09 11:30:52;;;;;;;6.35;5.80;;;25.70;99.90;;;;;;5094630;28;20216;-61
2021/06/09 11:33:44;;;;;;;6.53;5.85;;;25.80;99.90;;;;;;5094052;28;20682;-61
2021/06/09 11:36:27;;;;;;;7.43;6.65;;;25.90;99.90;;;;;;5093029;28;20609;-60
2021/06/09 11:38:57;;;;;;;5.97;5.47;;;25.70;99.90;;;;;;5093554;28;20186;-60
2021/06/09 11:41:28;;;;;;;6.78;5.93;;;25.40;99.90;;;;;;5093769;28;20220;-60
2021/06/09 11:43:58;;;;;;;6.60;6.00;;;25.40;99.90;;;;;;5093553;28;20623;-60
2021/06/09 11:46:28;;;;;;;6.95;6.15;;;25.30;99.90;;;;;;5093685;28;20271;-60
2021/06/09 11:48:58;;;;;;;5.97;5.32;;;25.30;99.90;;;;;;5093688;28;20208;-60
2021/06/09 11:51:32;;;;;;;6.55;6.05;;;25.30;99.90;;;;;;5093530;28;20282;-60
2021/06/09 11:54:01;;;;;;;6.35;5.75;;;25.30;99.90;;;;;;5093852;28;20188;-60
2021/06/09 11:56:44;;;;;;;6.78;6.20;;;25.30;99.90;;;;;;5093563;28;20237;-60
2021/06/09 11:59:26;;;;;;;6.00;5.55;;;25.40;99.90;;;;;;5093430;28;20656;-60
2021/06/09 12:01:58;;;;;;;6.90;6.40;;;25.40;99.90;;;;;;5093020;28;20219;-59
2021/06/09 12:04:29;;;;;;;6.80;6.05;;;25.30;99.90;;;;;;5093277;28;20191;-60
2021/06/09 12:06:58;;;;;;;5.72;5.32;;;25.30;99.90;;;;;;5093333;28;20267;-60
2021/06/09 12:09:30;;;;;;;6.70;6.10;;;25.30;99.90;;;;;;5093225;28;20200;-60
2021/06/09 12:11:59;;;;;;;6.15;5.70;;;25.30;99.90;;;;;;5093154;28;20343;-60
2021/06/09 12:14:30;;;;;;;6.22;5.78;;;25.30;99.90;;;;;;5093351;28;20694;-60
2021/06/09 12:17:14;;;;;;;6.30;5.75;;;25.30;99.90;;;;;;5093738;28;20215;-61
2021/06/09 12:19:43;;;;;;;6.40;5.88;;;25.40;99.90;;;;;;5078600;28;20279;-59
2021/06/09 12:22:15;;;;;;;6.25;5.75;;;25.50;99.90;;;;;;5072714;28;20323;-61
2021/06/09 12:24:43;;;;;;;7.22;6.10;;;25.40;99.90;;;;;;5073043;28;20212;-60
2021/06/09 12:27:12;;;;;;;5.72;5.28;;;25.20;99.90;;;;;;5072843;28;20238;-61
2021/06/09 12:29:42;;;;;;;6.50;5.85;;;25.40;99.90;;;;;;5071557;28;20248;-62
2021/06/09 12:32:19;;;;;;;6.55;5.95;;;25.60;99.90;;;;;;5083902;28;20710;-62
2021/06/09 12:34:56;;;;;;;6.38;5.78;;;25.70;99.90;;;;;;5090254;28;20223;-61
2021/06/09 12:37:24;;;;;;;7.95;5.70;;;25.80;99.90;;;;;;5090514;28;20187;-60
2021/06/09 12:39:57;;;;;;;6.60;5.97;;;25.80;99.90;;;;;;5090063;28;20678;-58
2021/06/09 12:42:25;;;;;;;5.95;5.45;;;25.80;99.90;;;;;;5090281;28;20236;-60
2021/06/09 12:44:54;;;;;;;7.15;5.70;;;25.80;99.90;;;;;;5090088;28;20303;-58
2021/06/09 12:47:30;;;;;;;6.57;6.03;;;25.70;99.90;;;;;;5090186;28;20273;-60
2021/06/09 12:50:20;;;;;;;6.63;6.03;;;25.60;99.90;;;;;;5089204;28;20190;-59
2021/06/09 12:52:49;;;;;;;6.45;5.95;;;25.50;99.90;;;;;;5089815;28;20228;-59
2021/06/09 12:55:22;;;;;;;5.82;5.43;;;25.40;99.90;;;;;;5089849;28;20214;-59
2021/06/09 12:57:49;;;;;;;6.05;5.55;;;25.40;99.90;;;;;;5090007;28;20215;-60
2021/06/09 13:00:27;;;;;;;5.88;5.47;;;25.50;99.90;;;;;;5089366;28;20254;-60
2021/06/09 13:03:25;;;;;;;5.85;5.32;;;25.50;99.90;;;;;;5089312;28;20184;-60